createdAt,value
2023-01-07T00:01:28.183Z,10.20
2023-01-07T00:03:56.534Z,10.20
2023-01-07T00:06:25.958Z,10.30
2023-01-07T00:08:54.416Z,10.30
2023-01-07T00:11:23.740Z,10.30
2023-01-07T00:13:52.061Z,10.30
2023-01-07T00:16:21.600Z,10.30
2023-01-07T00:18:48.848Z,10.30
2023-01-07T00:21:17.159Z,10.20
2023-01-07T00:23:45.462Z,10.00
2023-01-07T00:26:18.586Z,10.00
2023-01-07T00:28:47.583Z,10.00
2023-01-07T00:31:20.615Z,10.00
2023-01-07T00:33:56.685Z,10.00
2023-01-07T00:36:29.277Z,10.00
2023-01-07T00:39:00.878Z,10.00
2023-01-07T00:41:28.280Z,10.10
2023-01-07T00:43:56.170Z,10.20
2023-01-07T00:46:23.402Z,10.20
2023-01-07T00:48:50.389Z,10.10
2023-01-07T00:51:18.250Z,10.20
2023-01-07T00:53:45.375Z,10.20
2023-01-07T00:56:14.631Z,10.20
2023-01-07T00:58:42.063Z,10.20
2023-01-07T01:01:10.686Z,10.30
2023-01-07T01:03:39.120Z,10.30
2023-01-07T01:06:16.456Z,10.30
2023-01-07T01:08:47.724Z,10.40
2023-01-07T01:11:16.384Z,10.30
2023-01-07T01:13:44.396Z,10.40
2023-01-07T01:16:17.638Z,10.30
2023-01-07T01:18:45.548Z,10.30
2023-01-07T01:21:14.679Z,10.30
2023-01-07T01:23:42.619Z,10.30
2023-01-07T01:26:12.201Z,10.30
2023-01-07T01:28:39.926Z,10.30
2023-01-07T01:31:09.398Z,10.20
2023-01-07T01:33:45.066Z,10.30
2023-01-07T01:36:13.248Z,10.30
2023-01-07T01:38:41.298Z,10.30
2023-01-07T01:41:09.064Z,10.30
2023-01-07T01:43:41.340Z,10.40
2023-01-07T01:46:38.018Z,10.40
2023-01-07T01:49:18.317Z,10.40
2023-01-07T01:51:52.252Z,10.30
2023-01-07T01:54:20.515Z,10.40
2023-01-07T01:56:53.189Z,10.40
2023-01-07T01:59:24.058Z,10.40
2023-01-07T02:01:52.056Z,10.40
2023-01-07T02:04:23.262Z,10.40
2023-01-07T02:07:05.089Z,10.40
2023-01-07T02:09:34.358Z,10.40
2023-01-07T02:12:04.175Z,10.40
2023-01-07T02:15:03.195Z,10.50
2023-01-07T02:17:52.241Z,10.50
2023-01-07T02:20:26.890Z,10.50
2023-01-07T02:22:59.544Z,10.50
2023-01-07T02:25:42.170Z,10.40
2023-01-07T02:28:17.698Z,10.50
2023-01-07T02:31:09.585Z,10.50
2023-01-07T02:33:52.257Z,10.50
2023-01-07T02:36:50.003Z,10.50
2023-01-07T02:39:45.713Z,10.50
2023-01-07T02:42:39.345Z,10.50
2023-01-07T02:45:19.672Z,10.50
2023-01-07T02:47:59.951Z,10.50
2023-01-07T02:50:27.170Z,10.50
2023-01-07T02:52:54.024Z,10.50
2023-01-07T02:55:43.608Z,10.40
2023-01-07T02:58:32.455Z,10.40
2023-01-07T03:04:27.771Z,10.30
2023-01-07T03:07:13.005Z,10.20
2023-01-07T03:10:10.525Z,10.00
2023-01-07T03:12:46.180Z,9.90
2023-01-07T03:15:29.005Z,9.90
2023-01-07T03:18:11.066Z,9.80
2023-01-07T03:20:40.119Z,9.80
2023-01-07T03:23:10.239Z,9.70
2023-01-07T03:25:43.824Z,9.60
2023-01-07T03:28:14.055Z,9.50
2023-01-07T03:30:41.325Z,9.40
2023-01-07T03:33:13.609Z,9.40
2023-01-07T03:35:44.961Z,9.40
2023-01-07T03:38:14.536Z,9.50
2023-01-07T03:40:41.477Z,9.50
2023-01-07T03:43:14.186Z,9.60
2023-01-07T03:45:42.651Z,9.60
2023-01-07T03:48:09.578Z,9.60
2023-01-07T03:50:38.615Z,9.60
2023-01-07T03:53:06.303Z,9.60
2023-01-07T03:55:35.623Z,9.70
2023-01-07T03:58:03.203Z,9.70
2023-01-07T04:00:29.951Z,9.70
2023-01-07T04:03:05.604Z,9.80
2023-01-07T04:05:37.406Z,9.80
2023-01-07T04:08:04.748Z,9.80
2023-01-07T04:10:34.608Z,9.80
2023-01-07T04:13:01.512Z,9.90
2023-01-07T04:15:28.342Z,9.90
2023-01-07T04:17:55.116Z,9.90
2023-01-07T04:20:23.409Z,9.90
2023-01-07T04:22:50.445Z,9.90
2023-01-07T04:25:18.018Z,9.90
2023-01-07T04:27:45.465Z,9.90
2023-01-07T04:30:12.901Z,9.90
2023-01-07T04:32:39.715Z,9.90
2023-01-07T04:35:06.819Z,9.90
2023-01-07T04:37:33.636Z,9.90
2023-01-07T04:40:01.255Z,9.80
2023-01-07T04:42:32.625Z,9.90
2023-01-07T04:44:59.391Z,9.90
2023-01-07T04:47:26.151Z,9.90
2023-01-07T04:49:53.382Z,9.90
2023-01-07T04:52:20.133Z,9.90
2023-01-07T04:54:47.020Z,9.90
2023-01-07T04:57:14.047Z,9.90
2023-01-07T04:59:41.793Z,9.90
2023-01-07T05:02:08.785Z,9.90
2023-01-07T05:04:38.485Z,9.90
2023-01-07T05:07:05.922Z,9.90
2023-01-07T05:09:33.428Z,9.80
2023-01-07T05:12:00.350Z,9.80
2023-01-07T05:14:27.673Z,9.80
2023-01-07T05:16:56.254Z,9.80
2023-01-07T05:19:26.900Z,9.80
2023-01-07T05:21:54.368Z,9.70
2023-01-07T05:24:21.510Z,9.70
2023-01-07T05:26:48.296Z,9.70
2023-01-07T05:29:17.758Z,9.70
2023-01-07T05:31:46.223Z,9.70
2023-01-07T05:34:14.213Z,9.60
2023-01-07T05:36:42.175Z,9.70
2023-01-07T05:39:09.583Z,9.60
2023-01-07T05:41:36.422Z,9.50
2023-01-07T05:44:03.383Z,9.50
2023-01-07T05:46:30.105Z,9.40
2023-01-07T05:48:56.866Z,9.40
2023-01-07T05:51:23.559Z,9.40
2023-01-07T05:53:50.587Z,9.40
2023-01-07T05:56:17.382Z,9.40
2023-01-07T05:58:44.201Z,9.40
2023-01-07T06:01:10.995Z,9.40
2023-01-07T06:03:37.839Z,9.40
2023-01-07T06:06:07.382Z,9.30
2023-01-07T06:08:35.393Z,9.40
2023-01-07T06:11:02.238Z,9.40
2023-01-07T06:13:28.995Z,9.40
2023-01-07T06:16:03.447Z,9.40
2023-01-07T06:18:30.702Z,9.40
2023-01-07T06:20:57.577Z,9.40
2023-01-07T06:23:24.719Z,9.40
2023-01-07T06:25:51.547Z,9.30
2023-01-07T06:28:18.316Z,9.30
2023-01-07T06:30:46.517Z,9.30
2023-01-07T06:33:14.615Z,9.40
2023-01-07T06:35:41.643Z,9.50
2023-01-07T06:38:08.437Z,9.50
2023-01-07T06:40:35.194Z,9.50
2023-01-07T06:43:01.963Z,9.50
2023-01-07T06:45:28.835Z,9.50
2023-01-07T06:47:57.475Z,9.50
2023-01-07T06:50:24.809Z,9.50
2023-01-07T06:52:51.609Z,9.50
2023-01-07T06:55:18.496Z,9.50
2023-01-07T06:57:45.232Z,9.60
2023-01-07T07:00:12.687Z,9.60
2023-01-07T07:02:39.508Z,9.60
2023-01-07T07:05:06.548Z,9.60
2023-01-07T07:07:33.482Z,9.70
2023-01-07T07:10:00.914Z,9.70
2023-01-07T07:12:27.687Z,9.70
2023-01-07T07:14:54.383Z,9.70
2023-01-07T07:17:21.129Z,9.60
2023-01-07T07:19:47.913Z,9.60
2023-01-07T07:22:14.699Z,9.70
2023-01-07T07:24:41.494Z,9.70
2023-01-07T07:27:08.267Z,9.70
2023-01-07T07:29:35.050Z,9.80
2023-01-07T07:32:01.983Z,9.80
2023-01-07T07:34:28.724Z,9.80
2023-01-07T07:36:55.545Z,9.80
2023-01-07T07:39:22.328Z,9.90
2023-01-07T07:41:49.059Z,9.80
2023-01-07T07:44:17.953Z,9.90
2023-01-07T07:46:45.211Z,9.90
2023-01-07T07:49:12.659Z,9.90
2023-01-07T07:51:39.482Z,9.90
2023-01-07T07:54:06.338Z,10.00
2023-01-07T07:56:33.062Z,10.00
2023-01-07T07:58:59.837Z,10.00
2023-01-07T08:01:26.971Z,10.00
2023-01-07T08:03:53.721Z,10.10
2023-01-07T08:06:20.770Z,10.20
2023-01-07T08:08:47.628Z,10.20
2023-01-07T08:11:14.401Z,10.20
2023-01-07T08:13:41.217Z,10.20
2023-01-07T08:16:08.153Z,10.20
2023-01-07T08:18:34.986Z,10.20
2023-01-07T08:21:01.765Z,10.30
2023-01-07T08:23:28.643Z,10.30
2023-01-07T08:25:59.650Z,10.30
2023-01-07T08:28:26.664Z,10.40
2023-01-07T08:30:53.529Z,10.50
2023-01-07T08:33:20.683Z,10.50
2023-01-07T08:35:47.480Z,10.50
2023-01-07T08:38:14.979Z,10.60
2023-01-07T08:40:41.865Z,10.70
2023-01-07T08:43:09.232Z,10.70
2023-01-07T08:45:36.159Z,10.70
2023-01-07T08:48:03.171Z,10.70
2023-01-07T08:50:32.796Z,10.80
2023-01-07T08:53:00.127Z,10.70
2023-01-07T08:55:26.965Z,10.70
2023-01-07T08:57:53.868Z,10.70
2023-01-07T09:00:21.063Z,10.70
2023-01-07T09:02:47.835Z,10.70
2023-01-07T09:05:14.756Z,10.70
2023-01-07T09:07:41.550Z,10.70
2023-01-07T09:10:09.926Z,10.70
2023-01-07T09:12:36.925Z,10.70
2023-01-07T09:15:04.192Z,10.70
2023-01-07T09:17:30.985Z,10.80
2023-01-07T09:19:57.750Z,10.80
2023-01-07T09:22:24.454Z,10.90
2023-01-07T09:24:51.275Z,11.00
2023-01-07T09:27:18.186Z,11.00
2023-01-07T09:29:44.965Z,11.10
2023-01-07T09:32:11.818Z,11.20
2023-01-07T09:34:38.625Z,11.20
2023-01-07T09:37:06.545Z,11.40
2023-01-07T09:39:33.312Z,11.50
2023-01-07T09:42:21.478Z,11.60
2023-01-07T09:44:57.267Z,11.50
2023-01-07T09:47:27.802Z,11.50
2023-01-07T09:49:58.613Z,11.60
2023-01-07T09:52:36.861Z,11.60
2023-01-07T09:55:27.660Z,11.70
2023-01-07T09:57:54.807Z,11.70
2023-01-07T10:00:24.190Z,11.80
2023-01-07T10:03:20.364Z,11.80
2023-01-07T10:06:13.405Z,11.80
2023-01-07T10:09:02.734Z,11.80
2023-01-07T10:11:44.146Z,11.70
2023-01-07T10:14:52.040Z,11.70
2023-01-07T10:17:29.745Z,11.70
2023-01-07T10:20:04.211Z,11.70
2023-01-07T10:22:48.254Z,11.70
2023-01-07T10:25:32.882Z,11.60
2023-01-07T10:28:05.646Z,11.60
2023-01-07T10:30:40.939Z,11.50
2023-01-07T10:33:19.378Z,11.60
2023-01-07T10:35:49.919Z,11.60
2023-01-07T10:38:19.924Z,11.60
2023-01-07T10:40:53.519Z,11.50
2023-01-07T10:43:48.985Z,11.40
2023-01-07T10:46:48.760Z,11.50
2023-01-07T10:49:57.163Z,11.60
2023-01-07T10:52:35.024Z,11.50
2023-01-07T10:55:23.593Z,11.50
2023-01-07T10:57:50.774Z,11.50
2023-01-07T11:00:19.238Z,11.50
2023-01-07T11:02:51.421Z,11.50
2023-01-07T11:05:21.292Z,11.40
2023-01-07T11:07:56.077Z,11.40
2023-01-07T11:10:30.377Z,11.40
2023-01-07T11:13:26.427Z,11.40
2023-01-07T11:16:11.850Z,11.50
2023-01-07T11:18:53.758Z,11.40
2023-01-07T11:21:43.799Z,11.40
2023-01-07T11:24:31.211Z,11.40
2023-01-07T11:27:18.586Z,11.40
2023-01-07T11:29:55.849Z,11.40
2023-01-07T11:32:26.962Z,11.40
2023-01-07T11:34:59.944Z,11.50
2023-01-07T11:37:31.087Z,11.50
2023-01-07T11:40:00.405Z,11.50
2023-01-07T11:42:39.226Z,11.50
2023-01-07T11:45:15.709Z,11.50
2023-01-07T11:47:50.409Z,11.50
2023-01-07T11:50:34.452Z,11.50
2023-01-07T11:53:05.576Z,11.40
2023-01-07T11:55:32.551Z,11.30
2023-01-07T11:58:27.999Z,11.30
2023-01-07T12:00:46.749Z,11.30
2023-01-07T12:03:14.722Z,11.20
2023-01-07T12:05:45.178Z,11.30
2023-01-07T12:08:23.437Z,11.40
2023-01-07T12:10:58.232Z,11.40
2023-01-07T12:13:27.667Z,11.40
2023-01-07T12:15:58.130Z,11.40
2023-01-07T12:18:55.437Z,11.40
2023-01-07T12:21:52.593Z,11.40
2023-01-07T12:24:25.034Z,11.40
2023-01-07T12:27:18.428Z,11.50
2023-01-07T12:29:53.360Z,11.50
2023-01-07T12:33:02.313Z,11.50
2023-01-07T12:35:33.768Z,11.50
2023-01-07T12:38:25.943Z,11.50
2023-01-07T12:41:00.148Z,11.50
2023-01-07T12:43:43.416Z,11.40
2023-01-07T12:46:15.055Z,11.40
2023-01-07T12:49:27.943Z,11.40
2023-01-07T12:52:08.223Z,11.40
2023-01-07T12:54:45.482Z,11.40
2023-01-07T12:57:20.930Z,11.40
2023-01-07T13:00:10.206Z,11.30
2023-01-07T13:02:48.425Z,11.30
2023-01-07T13:05:23.725Z,11.20
2023-01-07T13:08:04.416Z,11.20
2023-01-07T13:10:39.014Z,11.20
2023-01-07T13:13:14.797Z,11.10
2023-01-07T13:15:41.953Z,11.20
2023-01-07T13:18:15.805Z,11.20
2023-01-07T13:21:10.659Z,11.20
2023-01-07T13:24:11.518Z,11.20
2023-01-07T13:26:58.380Z,11.10
2023-01-07T13:29:25.192Z,11.10
2023-01-07T13:32:24.232Z,11.10
2023-01-07T13:35:18.797Z,11.10
2023-01-07T13:38:28.901Z,11.10
2023-01-07T13:41:01.482Z,11.10
2023-01-07T13:44:00.210Z,11.10
2023-01-07T13:46:34.249Z,11.10
2023-01-07T13:49:01.566Z,11.00
2023-01-07T13:51:34.165Z,11.10
2023-01-07T13:54:01.513Z,11.00
2023-01-07T13:56:29.700Z,11.00
2023-01-07T13:58:58.106Z,11.00
2023-01-07T14:01:27.895Z,11.10
2023-01-07T14:03:55.947Z,11.10
2023-01-07T14:06:23.818Z,11.10
2023-01-07T14:09:13.899Z,11.10
2023-01-07T14:11:44.115Z,11.00
2023-01-07T14:14:43.851Z,10.90
2023-01-07T14:17:31.106Z,10.90
2023-01-07T14:20:08.796Z,11.00
2023-01-07T14:23:01.938Z,11.00
2023-01-07T14:25:58.794Z,10.90
2023-01-07T14:28:59.256Z,10.90
2023-01-07T14:31:28.995Z,10.90
2023-01-07T14:34:00.412Z,10.90
2023-01-07T14:37:09.841Z,10.80
2023-01-07T14:39:39.086Z,10.80
2023-01-07T14:42:39.213Z,10.80
2023-01-07T14:45:41.206Z,10.80
2023-01-07T14:48:07.975Z,10.90
2023-01-07T14:50:46.721Z,10.70
2023-01-07T14:53:16.500Z,10.70
2023-01-07T14:56:01.400Z,10.70
2023-01-07T14:58:41.472Z,10.70
2023-01-07T15:01:36.330Z,10.70
2023-01-07T15:04:09.203Z,10.70
2023-01-07T15:06:40.347Z,10.70
2023-01-07T15:09:36.088Z,10.70
2023-01-07T15:12:32.224Z,10.70
2023-01-07T15:15:39.623Z,10.70
2023-01-07T15:18:11.450Z,10.70
2023-01-07T15:21:04.237Z,10.70
2023-01-07T15:23:59.564Z,10.70
2023-01-07T15:26:50.399Z,10.70
2023-01-07T15:29:37.951Z,10.60
2023-01-07T15:32:32.342Z,10.60
2023-01-07T15:34:59.301Z,10.60
2023-01-07T15:37:26.041Z,10.50
2023-01-07T15:39:56.227Z,10.50
2023-01-07T15:42:25.505Z,10.40
2023-01-07T15:44:54.792Z,10.40
2023-01-07T15:47:41.108Z,10.40
2023-01-07T15:50:46.739Z,10.30
2023-01-07T15:53:13.428Z,10.30
2023-01-07T15:55:49.226Z,10.30
2023-01-07T15:58:20.376Z,10.40
2023-01-07T16:00:52.169Z,10.30
2023-01-07T16:03:20.411Z,10.40
2023-01-07T16:05:47.958Z,10.30
2023-01-07T16:08:20.903Z,10.30
2023-01-07T16:11:02.348Z,10.30
2023-01-07T16:13:30.637Z,10.30
2023-01-07T16:16:03.096Z,10.20
2023-01-07T16:18:32.457Z,10.10
2023-01-07T16:21:05.835Z,10.20
2023-01-07T16:23:34.886Z,10.10
2023-01-07T16:26:12.885Z,10.10
2023-01-07T16:28:49.141Z,10.00
2023-01-07T16:31:18.891Z,10.00
2023-01-07T16:33:48.380Z,9.90
2023-01-07T16:36:20.035Z,9.90
2023-01-07T16:38:50.395Z,9.80
2023-01-07T16:41:26.165Z,9.80
2023-01-07T16:44:00.260Z,9.70
2023-01-07T16:46:42.743Z,9.60
2023-01-07T16:49:17.469Z,9.60
2023-01-07T16:51:50.385Z,9.50
2023-01-07T16:54:29.325Z,9.40
2023-01-07T16:57:01.503Z,9.30
2023-01-07T16:59:53.767Z,9.10
2023-01-07T17:02:40.090Z,9.10
2023-01-07T17:05:19.537Z,9.10
2023-01-07T17:07:54.998Z,9.00
2023-01-07T17:10:25.509Z,8.90
2023-01-07T17:13:04.639Z,8.90
2023-01-07T17:15:31.335Z,8.80
2023-01-07T17:18:14.423Z,8.70
2023-01-07T17:20:45.569Z,8.70
2023-01-07T17:23:27.776Z,8.50
2023-01-07T17:26:14.369Z,8.50
2023-01-07T17:28:48.988Z,8.40
2023-01-07T17:31:16.301Z,8.40
2023-01-07T17:33:43.431Z,8.40
2023-01-07T17:36:21.523Z,8.30
2023-01-07T17:38:48.487Z,8.20
2023-01-07T17:41:36.888Z,8.10
2023-01-07T17:44:04.404Z,8.10
2023-01-07T17:46:31.279Z,8.00
2023-01-07T17:48:59.539Z,8.00
2023-01-07T17:51:27.459Z,7.80
2023-01-07T17:53:57.598Z,7.80
2023-01-07T17:56:24.676Z,7.80
2023-01-07T17:58:53.350Z,7.90
2023-01-07T18:01:23.090Z,7.90
2023-01-07T18:03:51.725Z,7.80
2023-01-07T18:06:24.651Z,7.80
2023-01-07T18:08:52.274Z,7.80
2023-01-07T18:11:43.653Z,7.80
2023-01-07T18:14:13.634Z,7.70
2023-01-07T18:16:40.812Z,7.70
2023-01-07T18:19:11.934Z,7.60
2023-01-07T18:21:38.977Z,7.60
2023-01-07T18:24:06.116Z,7.60
2023-01-07T18:26:32.886Z,7.60
2023-01-07T18:28:59.800Z,7.60
2023-01-07T18:31:26.667Z,7.70
2023-01-07T18:33:53.538Z,7.70
2023-01-07T18:36:20.706Z,7.80
2023-01-07T18:38:47.475Z,7.80
2023-01-07T18:41:14.246Z,7.80
2023-01-07T18:43:40.992Z,7.80
2023-01-07T18:46:09.258Z,7.80
2023-01-07T18:48:36.663Z,7.90
2023-01-07T18:51:10.246Z,7.80
2023-01-07T18:53:37.277Z,7.80
2023-01-07T18:56:08.345Z,7.80
2023-01-07T18:58:35.172Z,7.80
2023-01-07T19:01:06.766Z,7.90
2023-01-07T19:03:33.787Z,7.90
2023-01-07T19:06:00.740Z,7.90
2023-01-07T19:08:27.873Z,7.90
2023-01-07T19:10:54.794Z,7.90
2023-01-07T19:13:22.440Z,8.00
2023-01-07T19:15:49.647Z,7.90
2023-01-07T19:18:16.424Z,7.80
2023-01-07T19:20:43.217Z,7.90
2023-01-07T19:23:10.021Z,7.90
2023-01-07T19:25:36.839Z,7.90
2023-01-07T19:28:03.719Z,7.90
2023-01-07T19:30:30.530Z,7.90
2023-01-07T19:32:58.506Z,7.90
2023-01-07T19:35:26.754Z,8.00
2023-01-07T19:37:53.618Z,7.90
2023-01-07T19:40:20.729Z,8.00
2023-01-07T19:42:48.822Z,8.00
2023-01-07T19:45:15.757Z,8.00
2023-01-07T19:47:43.901Z,7.90
2023-01-07T19:50:11.552Z,7.90
2023-01-07T19:52:38.375Z,7.80
2023-01-07T19:55:05.768Z,7.80
2023-01-07T19:57:32.559Z,7.80
2023-01-07T19:59:59.402Z,7.70
2023-01-07T20:02:26.474Z,7.60
2023-01-07T20:04:53.510Z,7.60
2023-01-07T20:07:21.118Z,7.60
2023-01-07T20:09:48.486Z,7.60
2023-01-07T20:12:15.267Z,7.70
2023-01-07T20:14:42.343Z,7.70
2023-01-07T20:17:09.170Z,7.80
2023-01-07T20:19:36.056Z,7.80
2023-01-07T20:22:02.907Z,7.80
2023-01-07T20:24:29.769Z,7.80
2023-01-07T20:26:56.584Z,7.70
2023-01-07T20:29:23.423Z,7.60
2023-01-07T20:31:50.350Z,7.60
2023-01-07T20:34:17.224Z,7.50
2023-01-07T20:36:43.977Z,7.50
2023-01-07T20:39:11.076Z,7.60
2023-01-07T20:41:38.871Z,7.50
2023-01-07T20:44:08.743Z,7.50
2023-01-07T20:46:35.617Z,7.50
2023-01-07T20:49:02.460Z,7.50
2023-01-07T20:51:29.250Z,7.50
2023-01-07T20:53:55.972Z,7.40
2023-01-07T20:56:23.601Z,7.40
2023-01-07T20:58:53.497Z,7.40
2023-01-07T21:01:29.610Z,7.40
2023-01-07T21:04:01.311Z,7.40
2023-01-07T21:06:28.320Z,7.40
2023-01-07T21:08:55.132Z,7.50
2023-01-07T21:11:23.785Z,7.40
2023-01-07T21:13:51.760Z,7.50
2023-01-07T21:16:18.955Z,7.60
2023-01-07T21:18:46.994Z,7.60
2023-01-07T21:21:17.271Z,7.60
2023-01-07T21:23:46.652Z,7.50
2023-01-07T21:26:14.871Z,7.50
2023-01-07T21:28:44.489Z,7.50
2023-01-07T21:31:13.833Z,7.50
2023-01-07T21:33:40.750Z,7.50
2023-01-07T21:36:13.018Z,7.60
2023-01-07T21:38:39.972Z,7.60
2023-01-07T21:41:08.733Z,7.60
2023-01-07T21:43:35.947Z,7.60
2023-01-07T21:46:04.382Z,7.50
2023-01-07T21:48:35.661Z,7.60
2023-01-07T21:51:03.892Z,7.60
2023-01-07T21:53:32.340Z,7.50
2023-01-07T21:56:05.605Z,7.50
2023-01-07T21:58:32.465Z,7.50
2023-01-07T22:00:59.313Z,7.50
2023-01-07T22:03:28.689Z,7.50
2023-01-07T22:06:04.563Z,7.60
2023-01-07T22:08:31.378Z,7.70
2023-01-07T22:10:58.127Z,7.90
2023-01-07T22:13:24.860Z,8.00
2023-01-07T22:15:51.775Z,8.10
2023-01-07T22:18:18.568Z,8.30
2023-01-07T22:20:45.337Z,8.30
2023-01-07T22:23:17.121Z,8.40
2023-01-07T22:25:44.028Z,8.50
2023-01-07T22:28:11.198Z,8.60
2023-01-07T22:30:40.614Z,8.70
2023-01-07T22:33:07.380Z,8.70
2023-01-07T22:35:34.962Z,8.70
2023-01-07T22:38:02.689Z,8.60
2023-01-07T22:40:31.560Z,8.70
2023-01-07T22:43:04.090Z,8.70
2023-01-07T22:45:38.224Z,8.70
2023-01-07T22:48:05.834Z,8.70
2023-01-07T22:50:32.617Z,8.80
2023-01-07T22:52:59.430Z,8.80
2023-01-07T22:55:26.281Z,8.80
2023-01-07T22:57:53.769Z,8.90
2023-01-07T23:01:06.237Z,8.90
2023-01-07T23:03:33.231Z,9.00
2023-01-07T23:06:00.149Z,9.00
2023-01-07T23:08:26.876Z,9.00
2023-01-07T23:10:53.671Z,9.10
2023-01-07T23:13:20.520Z,9.10
2023-01-07T23:15:47.248Z,9.20
2023-01-07T23:18:14.193Z,9.20
2023-01-07T23:20:43.077Z,9.20
2023-01-07T23:23:11.642Z,9.20
2023-01-07T23:25:45.469Z,9.20
2023-01-07T23:28:12.303Z,9.20
2023-01-07T23:30:39.149Z,9.30
2023-01-07T23:33:05.986Z,9.30
2023-01-07T23:35:32.830Z,9.30
2023-01-07T23:38:00.446Z,9.30
2023-01-07T23:40:27.528Z,9.40
2023-01-07T23:42:55.127Z,9.40
2023-01-07T23:45:22.639Z,9.40
2023-01-07T23:47:49.546Z,9.40
2023-01-07T23:50:16.533Z,9.40
2023-01-07T23:52:43.195Z,9.40
2023-01-07T23:55:10.586Z,9.40
2023-01-07T23:57:37.462Z,9.40
